createdAt,value
2022-09-28T00:01:25.721Z,70.10
2022-09-28T00:03:58.155Z,69.90
2022-09-28T00:06:26.571Z,69.60
2022-09-28T00:08:56.479Z,69.70
2022-09-28T00:11:31.720Z,69.60
2022-09-28T00:14:02.431Z,69.30
2022-09-28T00:16:34.990Z,69.00
2022-09-28T00:19:02.715Z,69.10
2022-09-28T00:21:34.223Z,68.70
2022-09-28T00:24:19.047Z,68.50
2022-09-28T00:26:56.864Z,68.90
2022-09-28T00:29:31.809Z,69.10
2022-09-28T00:32:03.376Z,69.30
2022-09-28T00:34:43.304Z,69.10
2022-09-28T00:37:11.165Z,69.00
2022-09-28T00:39:38.752Z,69.20
2022-09-28T00:42:14.791Z,69.00
2022-09-28T00:44:49.672Z,68.70
2022-09-28T00:47:38.170Z,68.60
2022-09-28T00:50:17.114Z,68.30
2022-09-28T00:53:05.859Z,68.80
2022-09-28T00:55:46.315Z,68.60
2022-09-28T00:58:20.054Z,68.30
2022-09-28T01:00:49.201Z,68.00
2022-09-28T01:03:16.751Z,67.90
2022-09-28T01:05:47.049Z,67.80
2022-09-28T01:08:14.943Z,67.90
2022-09-28T01:10:43.520Z,68.10
2022-09-28T01:13:12.466Z,68.10
2022-09-28T01:15:57.913Z,67.80
2022-09-28T01:18:59.934Z,68.60
2022-09-28T01:21:27.198Z,68.50
2022-09-28T01:24:14.917Z,68.40
2022-09-28T01:27:00.817Z,68.60
2022-09-28T01:29:46.114Z,67.90
2022-09-28T01:32:18.953Z,67.80
2022-09-28T01:35:18.344Z,67.80
2022-09-28T01:37:52.311Z,67.70
2022-09-28T01:40:22.587Z,67.80
2022-09-28T01:42:56.985Z,67.80
2022-09-28T01:45:33.225Z,67.60
2022-09-28T01:48:06.429Z,67.50
2022-09-28T01:50:40.229Z,67.30
2022-09-28T01:53:16.846Z,67.60
2022-09-28T01:55:48.049Z,67.40
2022-09-28T01:58:41.415Z,67.40
2022-09-28T02:01:29.554Z,67.90
2022-09-28T02:04:03.765Z,67.60
2022-09-28T02:06:38.907Z,67.80
2022-09-28T02:09:12.751Z,68.00
2022-09-28T02:11:44.795Z,67.90
2022-09-28T02:14:16.256Z,68.20
2022-09-28T02:16:45.369Z,68.60
2022-09-28T02:19:19.072Z,68.40
2022-09-28T02:22:09.428Z,68.10
2022-09-28T02:24:53.764Z,68.70
2022-09-28T02:27:57.111Z,68.50
2022-09-28T02:30:24.228Z,68.70
2022-09-28T02:32:54.843Z,69.00
2022-09-28T02:35:22.572Z,69.30
2022-09-28T02:37:50.198Z,69.60
2022-09-28T02:40:19.955Z,69.80
2022-09-28T02:43:08.826Z,70.10
2022-09-28T02:45:49.372Z,70.20
2022-09-28T02:48:44.762Z,70.40
2022-09-28T02:51:52.816Z,70.20
2022-09-28T02:54:31.102Z,70.50
2022-09-28T02:57:19.582Z,70.70
2022-09-28T03:00:05.670Z,70.80
2022-09-28T03:03:17.941Z,71.10
2022-09-28T03:06:12.011Z,71.30
2022-09-28T03:08:54.679Z,71.50
2022-09-28T03:11:30.815Z,71.40
2022-09-28T03:13:58.622Z,71.40
2022-09-28T03:16:27.451Z,71.60
2022-09-28T03:18:54.360Z,71.70
2022-09-28T03:21:21.418Z,72.00
2022-09-28T03:23:48.170Z,72.50
2022-09-28T03:26:17.437Z,72.30
2022-09-28T03:28:44.208Z,72.30
2022-09-28T03:31:11.036Z,73.00
2022-09-28T03:33:37.888Z,74.00
2022-09-28T03:36:05.876Z,74.20
2022-09-28T03:38:35.670Z,74.80
2022-09-28T03:41:02.511Z,75.20
2022-09-28T03:43:30.906Z,75.80
2022-09-28T03:45:59.592Z,76.30
2022-09-28T03:48:35.035Z,76.60
2022-09-28T03:51:04.905Z,77.60
2022-09-28T03:53:35.543Z,78.00
2022-09-28T03:56:05.020Z,78.60
2022-09-28T03:58:32.042Z,78.80
2022-09-28T04:01:07.179Z,79.30
2022-09-28T04:03:34.452Z,79.60
2022-09-28T04:06:01.267Z,80.20
2022-09-28T04:08:28.446Z,80.80
2022-09-28T04:10:57.794Z,81.80
2022-09-28T04:13:25.709Z,81.70
2022-09-28T04:15:58.436Z,82.10
2022-09-28T04:18:34.555Z,82.50
2022-09-28T04:21:13.285Z,82.70
2022-09-28T04:23:40.551Z,83.40
2022-09-28T04:26:11.673Z,84.30
2022-09-28T04:28:56.888Z,83.90
2022-09-28T04:31:24.627Z,83.90
2022-09-28T04:33:51.452Z,84.40
2022-09-28T04:36:20.459Z,84.70
2022-09-28T04:38:53.276Z,85.30
2022-09-28T04:41:22.395Z,85.90
2022-09-28T04:43:49.865Z,86.30
2022-09-28T04:46:16.929Z,86.60
2022-09-28T04:48:46.246Z,86.70
2022-09-28T04:51:13.206Z,86.90
2022-09-28T04:53:40.002Z,87.00
2022-09-28T04:56:17.090Z,86.70
2022-09-28T04:58:51.779Z,85.60
2022-09-28T05:01:20.492Z,84.80
2022-09-28T05:03:47.342Z,84.10
2022-09-28T05:06:15.545Z,83.40
2022-09-28T05:08:43.109Z,82.60
2022-09-28T05:11:14.933Z,81.50
2022-09-28T05:13:45.399Z,80.30
2022-09-28T05:16:16.177Z,79.60
2022-09-28T05:18:45.698Z,78.40
2022-09-28T05:21:13.813Z,77.90
2022-09-28T05:23:43.811Z,77.70
2022-09-28T05:26:10.603Z,77.30
2022-09-28T05:28:41.702Z,77.30
2022-09-28T05:31:13.093Z,76.60
2022-09-28T05:33:39.892Z,75.90
2022-09-28T05:36:10.965Z,75.60
2022-09-28T05:38:38.001Z,75.30
2022-09-28T05:41:07.159Z,75.00
2022-09-28T05:43:34.402Z,75.00
2022-09-28T05:46:03.426Z,74.70
2022-09-28T05:48:30.586Z,74.40
2022-09-28T05:50:58.949Z,74.70
2022-09-28T05:53:25.947Z,74.90
2022-09-28T05:55:58.434Z,73.70
2022-09-28T05:58:25.351Z,73.60
2022-09-28T06:00:56.574Z,73.10
2022-09-28T06:03:28.661Z,72.90
2022-09-28T06:05:57.855Z,72.20
2022-09-28T06:08:26.714Z,71.70
2022-09-28T06:10:58.658Z,70.10
2022-09-28T06:13:25.509Z,70.00
2022-09-28T06:15:54.837Z,69.30
2022-09-28T06:18:23.817Z,69.40
2022-09-28T06:20:53.091Z,69.00
2022-09-28T06:23:22.427Z,69.10
2022-09-28T06:25:51.489Z,70.00
2022-09-28T06:28:18.565Z,71.10
2022-09-28T06:30:45.869Z,70.80
2022-09-28T06:33:14.364Z,71.20
2022-09-28T06:35:42.210Z,71.70
2022-09-28T06:38:09.109Z,72.60
2022-09-28T06:40:36.328Z,72.70
2022-09-28T06:43:10.549Z,73.00
2022-09-28T06:45:38.614Z,73.60
2022-09-28T06:48:09.365Z,74.00
2022-09-28T06:50:42.177Z,74.40
2022-09-28T06:53:14.065Z,74.80
2022-09-28T06:55:46.087Z,75.30
2022-09-28T06:58:17.619Z,75.70
2022-09-28T07:00:44.648Z,76.00
2022-09-28T07:03:17.277Z,76.30
2022-09-28T07:05:47.219Z,76.40
2022-09-28T07:08:15.909Z,76.40
2022-09-28T07:10:45.202Z,76.20
2022-09-28T07:13:34.946Z,76.40
2022-09-28T07:16:03.795Z,76.40
2022-09-28T07:18:30.711Z,76.70
2022-09-28T07:20:57.796Z,76.90
2022-09-28T07:23:27.469Z,77.20
2022-09-28T07:25:54.565Z,77.30
2022-09-28T07:28:22.437Z,77.60
2022-09-28T07:30:49.424Z,77.10
2022-09-28T07:33:19.233Z,76.80
2022-09-28T07:35:53.054Z,76.60
2022-09-28T07:38:19.788Z,76.40
2022-09-28T07:41:05.291Z,77.00
2022-09-28T07:43:32.864Z,76.00
2022-09-28T07:46:00.103Z,75.60
2022-09-28T07:48:27.030Z,75.00
2022-09-28T07:51:00.131Z,74.60
2022-09-28T07:53:27.234Z,73.40
2022-09-28T07:55:56.193Z,73.30
2022-09-28T07:58:23.143Z,72.00
2022-09-28T08:00:50.700Z,70.60
2022-09-28T08:03:19.058Z,69.50
2022-09-28T08:05:46.936Z,68.10
2022-09-28T08:08:14.407Z,67.00
2022-09-28T08:10:47.712Z,66.30
2022-09-28T08:13:16.342Z,65.10
2022-09-28T08:15:43.285Z,63.30
2022-09-28T08:18:10.277Z,62.20
2022-09-28T08:20:55.801Z,61.80
2022-09-28T08:23:23.513Z,60.30
2022-09-28T08:25:54.026Z,59.50
2022-09-28T08:28:24.402Z,58.30
2022-09-28T08:30:54.370Z,56.90
2022-09-28T08:33:21.690Z,55.60
2022-09-28T08:35:55.805Z,54.60
2022-09-28T08:38:25.588Z,52.40
2022-09-28T08:41:15.544Z,51.40
2022-09-28T08:44:03.868Z,50.50
2022-09-28T08:46:43.919Z,50.10
2022-09-28T08:49:32.476Z,49.50
2022-09-28T08:52:23.553Z,49.10
2022-09-28T08:55:04.185Z,48.90
2022-09-28T08:57:38.238Z,49.00
2022-09-28T09:00:11.029Z,48.50
2022-09-28T09:02:39.758Z,48.80
2022-09-28T09:05:15.057Z,48.00
2022-09-28T09:07:57.088Z,47.80
2022-09-28T09:10:44.552Z,47.90
2022-09-28T09:13:41.111Z,47.30
2022-09-28T09:16:44.847Z,47.50
2022-09-28T09:19:33.242Z,46.20
2022-09-28T09:22:10.027Z,45.90
2022-09-28T09:24:39.905Z,45.30
2022-09-28T09:27:18.754Z,44.70
2022-09-28T09:30:13.581Z,44.30
2022-09-28T09:33:05.087Z,44.00
2022-09-28T09:35:53.207Z,42.40
2022-09-28T09:38:46.412Z,42.30
2022-09-28T09:41:35.666Z,42.50
2022-09-28T09:44:31.097Z,42.00
2022-09-28T09:47:18.666Z,42.60
2022-09-28T09:50:08.322Z,42.40
2022-09-28T09:52:57.319Z,42.60
2022-09-28T09:55:54.865Z,42.30
2022-09-28T09:58:34.207Z,42.40
2022-09-28T10:01:16.047Z,42.30
2022-09-28T10:03:47.088Z,41.60
2022-09-28T10:06:22.080Z,40.90
2022-09-28T10:08:58.467Z,40.40
2022-09-28T10:11:34.088Z,39.80
2022-09-28T10:14:03.039Z,39.20
2022-09-28T10:16:33.141Z,38.40
2022-09-28T10:19:03.146Z,37.80
2022-09-28T10:21:30.827Z,37.50
2022-09-28T10:23:59.419Z,37.50
2022-09-28T10:26:38.020Z,38.00
2022-09-28T10:29:26.254Z,36.90
2022-09-28T10:31:57.090Z,37.40
2022-09-28T10:34:28.881Z,38.30
2022-09-28T10:37:06.869Z,39.00
2022-09-28T10:39:37.597Z,38.40
2022-09-28T10:42:17.899Z,38.20
2022-09-28T10:45:01.139Z,37.70
2022-09-28T10:47:35.538Z,37.20
2022-09-28T10:50:03.368Z,37.50
2022-09-28T10:52:43.104Z,37.40
2022-09-28T10:55:32.600Z,36.50
2022-09-28T10:58:24.331Z,36.40
2022-09-28T11:00:52.719Z,35.50
2022-09-28T11:03:28.108Z,35.50
2022-09-28T11:06:07.128Z,36.90
2022-09-28T11:08:41.886Z,36.30
2022-09-28T11:11:13.714Z,36.90
2022-09-28T11:13:56.032Z,36.20
2022-09-28T11:16:34.177Z,35.70
2022-09-28T11:19:28.950Z,35.70
2022-09-28T11:21:55.937Z,38.00
2022-09-28T11:24:25.472Z,38.90
2022-09-28T11:26:56.859Z,40.20
2022-09-28T11:29:37.612Z,41.20
2022-09-28T11:32:12.415Z,41.60
2022-09-28T11:34:59.227Z,42.80
2022-09-28T11:37:41.899Z,44.40
2022-09-28T11:40:14.600Z,43.80
2022-09-28T11:43:09.503Z,44.20
2022-09-28T11:45:51.053Z,43.50
2022-09-28T11:48:24.322Z,43.60
2022-09-28T11:51:00.106Z,43.50
2022-09-28T11:53:42.993Z,44.30
2022-09-28T11:56:11.843Z,44.20
2022-09-28T11:58:52.710Z,42.80
2022-09-28T12:01:26.804Z,42.60
2022-09-28T12:04:00.439Z,42.50
2022-09-28T12:06:37.593Z,42.70
2022-09-28T12:09:15.832Z,41.30
2022-09-28T12:11:45.537Z,39.80
2022-09-28T12:14:36.429Z,40.30
2022-09-28T12:17:20.235Z,39.60
2022-09-28T12:19:58.536Z,40.20
2022-09-28T12:22:52.185Z,41.80
2022-09-28T12:25:22.452Z,41.80
2022-09-28T12:27:49.208Z,40.20
2022-09-28T12:30:25.355Z,38.60
2022-09-28T12:33:12.256Z,38.10
2022-09-28T12:35:56.461Z,38.10
2022-09-28T12:39:35.616Z,37.30
2022-09-28T12:42:13.108Z,35.40
2022-09-28T12:45:00.422Z,34.90
2022-09-28T12:47:36.227Z,33.60
2022-09-28T12:50:38.114Z,33.70
2022-09-28T12:53:26.467Z,33.00
2022-09-28T12:56:16.751Z,34.20
2022-09-28T12:59:07.263Z,34.50
2022-09-28T13:02:09.479Z,34.90
2022-09-28T13:04:45.767Z,35.50
2022-09-28T13:07:24.262Z,34.30
2022-09-28T13:10:16.112Z,34.00
2022-09-28T13:12:48.632Z,32.80
2022-09-28T13:15:32.231Z,33.40
2022-09-28T13:18:22.725Z,33.40
2022-09-28T13:21:05.311Z,33.30
2022-09-28T13:23:43.235Z,33.20
2022-09-28T13:26:28.146Z,33.50
2022-09-28T13:29:00.424Z,33.00
2022-09-28T13:31:33.149Z,32.40
2022-09-28T13:34:03.991Z,31.30
2022-09-28T13:36:30.797Z,28.80
2022-09-28T13:39:01.297Z,26.30
2022-09-28T13:41:41.733Z,25.60
2022-09-28T13:44:21.353Z,24.80
2022-09-28T13:47:06.193Z,24.40
2022-09-28T13:49:40.733Z,24.80
2022-09-28T13:52:30.560Z,26.50
2022-09-28T13:55:11.365Z,25.90
2022-09-28T13:58:00.083Z,26.30
2022-09-28T14:00:45.560Z,25.90
2022-09-28T14:04:11.296Z,26.40
2022-09-28T14:06:47.518Z,26.90
2022-09-28T14:09:16.438Z,29.10
2022-09-28T14:12:04.125Z,29.60
2022-09-28T14:14:51.343Z,30.00
2022-09-28T14:17:29.761Z,30.00
2022-09-28T14:20:11.232Z,30.00
2022-09-28T14:23:11.497Z,29.20
2022-09-28T14:25:59.121Z,27.90
2022-09-28T14:28:26.263Z,25.80
2022-09-28T14:30:58.206Z,23.90
2022-09-28T14:33:32.226Z,21.20
2022-09-28T14:36:04.683Z,23.10
2022-09-28T14:39:06.586Z,24.60
2022-09-28T14:41:46.450Z,26.00
2022-09-28T14:44:18.156Z,23.50
2022-09-28T14:46:48.480Z,24.00
2022-09-28T14:49:19.504Z,25.60
2022-09-28T14:51:58.014Z,27.10
2022-09-28T14:54:28.210Z,28.70
2022-09-28T14:57:00.127Z,29.80
2022-09-28T14:59:36.294Z,31.10
2022-09-28T15:02:17.419Z,32.50
2022-09-28T15:04:49.237Z,34.00
2022-09-28T15:07:29.694Z,35.50
2022-09-28T15:09:58.767Z,35.90
2022-09-28T15:12:31.169Z,36.70
2022-09-28T15:15:02.431Z,37.40
2022-09-28T15:17:39.553Z,38.40
2022-09-28T15:20:30.104Z,39.40
2022-09-28T15:23:00.118Z,40.00
2022-09-28T15:25:35.363Z,41.20
2022-09-28T15:28:17.768Z,41.70
2022-09-28T15:30:46.826Z,42.50
2022-09-28T15:33:50.011Z,42.60
2022-09-28T15:36:30.802Z,43.70
2022-09-28T15:39:12.429Z,44.30
2022-09-28T15:41:40.611Z,44.40
2022-09-28T15:44:14.797Z,44.30
2022-09-28T15:46:44.963Z,44.30
2022-09-28T15:49:25.903Z,45.10
2022-09-28T15:51:56.161Z,45.80
2022-09-28T15:54:38.880Z,45.30
2022-09-28T15:57:10.316Z,45.70
2022-09-28T15:59:39.609Z,45.60
2022-09-28T16:02:25.677Z,46.40
2022-09-28T16:04:58.797Z,46.50
2022-09-28T16:07:56.245Z,46.90
2022-09-28T16:11:09.074Z,46.40
2022-09-28T16:13:54.419Z,45.60
2022-09-28T16:16:29.522Z,45.60
2022-09-28T16:19:00.725Z,45.30
2022-09-28T16:21:47.889Z,45.50
2022-09-28T16:24:24.586Z,46.20
2022-09-28T16:27:09.273Z,46.60
2022-09-28T16:29:41.328Z,47.40
2022-09-28T16:32:41.666Z,47.90
2022-09-28T16:35:22.173Z,49.40
2022-09-28T16:37:57.695Z,50.40
2022-09-28T16:40:27.513Z,51.40
2022-09-28T16:42:57.339Z,52.10
2022-09-28T16:45:24.342Z,52.50
2022-09-28T16:47:52.471Z,53.60
2022-09-28T16:50:21.304Z,54.40
2022-09-28T16:53:31.241Z,54.80
2022-09-28T16:56:01.001Z,55.60
2022-09-28T16:58:28.910Z,56.30
2022-09-28T17:00:56.359Z,57.20
2022-09-28T17:03:25.800Z,57.40
2022-09-28T17:05:56.212Z,57.80
2022-09-28T17:08:24.813Z,58.50
2022-09-28T17:11:23.387Z,58.90
2022-09-28T17:13:49.292Z,59.80
2022-09-28T17:16:43.012Z,60.10
2022-09-28T17:19:23.921Z,60.80
2022-09-28T17:21:53.369Z,61.90
2022-09-28T17:24:20.524Z,61.80
2022-09-28T17:26:52.002Z,62.00
2022-09-28T17:29:21.792Z,61.90
2022-09-28T17:31:51.170Z,62.20
2022-09-28T17:34:20.871Z,62.40
2022-09-28T17:36:50.032Z,63.00
2022-09-28T17:39:18.689Z,63.50
2022-09-28T17:41:45.847Z,63.70
2022-09-28T17:44:16.089Z,64.20
2022-09-28T17:46:49.080Z,65.30
2022-09-28T17:49:18.716Z,65.90
2022-09-28T17:51:47.667Z,66.20
2022-09-28T17:54:16.797Z,66.30
2022-09-28T17:56:43.711Z,66.20
2022-09-28T17:59:16.755Z,66.40
2022-09-28T18:01:43.651Z,66.70
2022-09-28T18:04:27.615Z,66.60
2022-09-28T18:06:59.108Z,66.80
2022-09-28T18:09:26.122Z,66.70
2022-09-28T18:12:00.614Z,66.20
2022-09-28T18:14:28.381Z,66.60
2022-09-28T18:16:55.182Z,66.50
2022-09-28T18:19:27.444Z,66.50
2022-09-28T18:21:56.280Z,66.20
2022-09-28T18:24:23.218Z,66.50
2022-09-28T18:26:50.016Z,65.90
2022-09-28T18:29:20.044Z,66.30
2022-09-28T18:31:49.424Z,66.60
2022-09-28T18:34:16.672Z,67.10
2022-09-28T18:36:46.366Z,67.40
2022-09-28T18:39:15.642Z,67.60
2022-09-28T18:41:42.704Z,67.70
2022-09-28T18:44:10.141Z,67.80
2022-09-28T18:46:40.952Z,68.40
2022-09-28T18:49:10.360Z,68.60
2022-09-28T18:51:37.550Z,68.90
2022-09-28T18:54:07.614Z,68.90
2022-09-28T18:56:38.204Z,69.30
2022-09-28T18:59:12.148Z,69.30
2022-09-28T19:01:41.725Z,69.60
2022-09-28T19:04:12.171Z,69.60
2022-09-28T19:06:41.548Z,69.50
2022-09-28T19:09:08.937Z,70.00
2022-09-28T19:11:35.999Z,70.10
2022-09-28T19:14:03.754Z,70.40
2022-09-28T19:16:36.789Z,70.80
2022-09-28T19:19:03.644Z,71.50
2022-09-28T19:21:35.677Z,71.70
2022-09-28T19:24:05.829Z,72.40
2022-09-28T19:26:35.155Z,73.60
2022-09-28T19:29:02.973Z,74.00
2022-09-28T19:31:30.511Z,74.20
2022-09-28T19:33:57.511Z,74.30
2022-09-28T19:36:28.380Z,74.70
2022-09-28T19:38:57.842Z,75.20
2022-09-28T19:41:45.763Z,75.80
2022-09-28T19:44:30.255Z,75.70
2022-09-28T19:47:07.126Z,76.20
2022-09-28T19:49:41.523Z,77.00
2022-09-28T19:52:16.583Z,77.20
2022-09-28T19:54:57.181Z,77.60
2022-09-28T19:57:25.901Z,77.50
2022-09-28T19:59:55.771Z,77.60
2022-09-28T20:02:27.351Z,78.00
2022-09-28T20:04:54.159Z,78.40
2022-09-28T20:07:21.200Z,78.30
2022-09-28T20:09:48.211Z,78.50
2022-09-28T20:12:14.994Z,78.60
2022-09-28T20:14:42.011Z,79.00
2022-09-28T20:17:09.607Z,79.10
2022-09-28T20:19:36.426Z,79.20
2022-09-28T20:22:03.699Z,79.70
2022-09-28T20:24:33.313Z,79.70
2022-09-28T20:27:01.585Z,80.00
2022-09-28T20:29:31.571Z,80.30
2022-09-28T20:32:01.332Z,80.90
2022-09-28T20:34:28.598Z,81.30
2022-09-28T20:36:56.701Z,81.50
2022-09-28T20:39:26.405Z,82.00
2022-09-28T20:41:54.652Z,82.00
2022-09-28T20:44:25.875Z,82.20
2022-09-28T20:46:52.856Z,82.40
2022-09-28T20:49:19.629Z,82.40
2022-09-28T20:51:46.540Z,82.40
2022-09-28T20:54:13.621Z,82.40
2022-09-28T20:56:40.424Z,82.40
2022-09-28T20:59:08.580Z,82.00
2022-09-28T21:01:35.691Z,81.60
2022-09-28T21:04:04.511Z,81.50
2022-09-28T21:06:36.635Z,81.00
2022-09-28T21:09:07.812Z,80.80
2022-09-28T21:11:38.674Z,80.30
2022-09-28T21:14:08.138Z,79.80
2022-09-28T21:16:37.805Z,79.60
2022-09-28T21:19:04.946Z,79.30
2022-09-28T21:21:32.131Z,79.20
2022-09-28T21:23:59.329Z,78.90
2022-09-28T21:26:31.240Z,78.70
2022-09-28T21:29:03.401Z,78.40
2022-09-28T21:31:41.815Z,78.00
2022-09-28T21:34:20.145Z,78.10
2022-09-28T21:36:48.597Z,78.00
2022-09-28T21:39:15.510Z,77.70
2022-09-28T21:41:42.389Z,77.70
2022-09-28T21:44:09.335Z,77.50
2022-09-28T21:46:37.942Z,77.40
2022-09-28T21:49:07.482Z,77.30
2022-09-28T21:51:35.593Z,77.10
2022-09-28T21:54:02.586Z,77.00
2022-09-28T21:56:29.588Z,76.80
2022-09-28T21:58:56.756Z,76.60
2022-09-28T22:01:25.638Z,76.60
2022-09-28T22:03:55.095Z,76.30
2022-09-28T22:06:27.879Z,76.20
2022-09-28T22:08:54.747Z,75.90
2022-09-28T22:11:24.253Z,75.90
